Raymondville, Texas
Current Conditions -  °F | °C
As of 4:52 PM on Thursday 27 Nov 2014 (Local Time) from KHRL Reporting Station
Clear Clear  
Wind Chill: 70°   Ceiling: Unl
Heat Index: 70°   Visibility: 10mi
Dew Point: 57°   Wind: 12mph
Humidity: 63%   Direction: 90°E
Pressure: 30.34"   Gusts: NA
Location:  26.48°N, 97.78°W
Report Text: KHRL 272252Z 09010KT 10SM CLR 21/14 A3034 RMK AO2 SLP274 T02110139 $
Loading
Personal Weather Stations






























Interactive Weather Map New forecast layout! Learn more

10-Day Weather Forecast

Advertisements
Track Severe Weather on mobile